Historique des mesures à Cassis (13260), France
Quotidien Résumé Aout 2, 2017 Unités:  Métrique    US   Métrique/US
« Précédent (Jour)
Suivant (Jour) »
Quotidien Hebdomadaire Mensuel Annuel Période au choix
  Maximum: Minimum: Moyenne:
Température: TemperatureC °C 24.6 °C 28 °C
Point de rosée: DewpointC °C 17.2 °C 19.6 °C
Humidité: Humidity % 49 % 57 %
Vitesse du vent: 0 km/h 0 km/h 5.5 km/h
Rafales: 0 km/h - -
Vent:- - SE
Pression: PressurehPa hPa 1012.8 hPa -
Précipitations: 0.0 mm    
Historical Graphs
 
 
Mesures pour : Aout 2, 2017
Heure Temperature Point de rosée Pression Vent Vitesse du vent Rafales Humidité Pluie (par heure) Conditions
TemperatureC °C DewpointC °C PressurehPa hPa Calm     Humidity % HourlyPrecipMM mm SoftwareType W/m2
00:11 27.3 °C 18.3 °C 1012.8 hPa NNE 2.3 km/h 2.9 km/h 58 % 0.0 mm open2300-1.11 W/m2
01:11 26.4 °C 18.1 °C 1013.4 hPa Calm   2.9 km/h 60 % 0.0 mm open2300-1.11 W/m2
02:11 26.0 °C 18.4 °C 1013.8 hPa NW 5.1 km/h 13.2 km/h 63 % 0.0 mm open2300-1.11 W/m2
03:11 25.5 °C 19.4 °C 1014.1 hPa WNW 20.9 km/h 36.5 km/h 69 % 0.0 mm open2300-1.11 W/m2
04:11 25.1 °C 19.5 °C 1014.4 hPa WNW 16.3 km/h 16.3 km/h 71 % 0.0 mm open2300-1.11 W/m2
05:11 24.6 °C 19.4 °C 1014.4 hPa NE 5.6 km/h 6.9 km/h 73 % 0.0 mm open2300-1.11 W/m2
06:11 24.6 °C 19.0 °C 1013.4 hPa North 8 km/h 8 km/h 71 % 0.0 mm open2300-1.11 W/m2
07:11 25.6 °C 17.8 °C 1013.4 hPa North 4.2 km/h 10.3 km/h 62 % 0.0 mm open2300-1.11 W/m2
08:11 28.9 °C 17.2 °C 1013.4 hPa NNE 6.9 km/h 6.9 km/h 49 % 0.0 mm open2300-1.11 W/m2
09:11 29.6 °C 18.7 °C 1014.1 hPa SE 3.4 km/h 3.4 km/h 52 % 0.0 mm open2300-1.11 W/m2
10:11 29.9 °C 20.4 °C 1014.1 hPa SE 2.3 km/h 10.3 km/h 57 % 0.0 mm open2300-1.11 W/m2
11:11 32.9 °C 21.4 °C 1014.4 hPa SSE 9.8 km/h 9.8 km/h 51 % 0.0 mm open2300-1.11 W/m2
12:11 34.3 °C 22.1 °C 1015.1 hPa SSE 13.2 km/h 13.2 km/h 49 % 0.0 mm open2300-1.11 W/m2
13:11 33.2 °C 22.3 °C 1015.5 hPa West 4.2 km/h 8 km/h 53 % 0.0 mm open2300-1.11 W/m2
14:11 33.2 °C 22.0 °C 1014.8 hPa SE 12.2 km/h 12.2 km/h 52 % 0.0 mm open2300-1.11 W/m2
15:11 33.1 °C 21.9 °C 1014.1 hPa SE 6.4 km/h 6.4 km/h 52 % 0.0 mm open2300-1.11 W/m2
16:11 33.1 °C 22.5 °C 1014.1 hPa SSE 9.3 km/h 9.3 km/h 54 % 0.0 mm open2300-1.11 W/m2
17:11 32.1 °C 22.5 °C 1014.1 hPa Calm   9.3 km/h 57 % 0.0 mm open2300-1.11 W/m2
18:11 30.8 °C 21.9 °C 1013.1 hPa Calm     59 % 0.0 mm open2300-1.11 W/m2
19:11 30.6 °C 22.3 °C 1013.4 hPa SSE 5.1 km/h 5.1 km/h 61 % 0.0 mm open2300-1.11 W/m2
20:11 29.6 °C 21.6 °C 1012.8 hPa Calm     62 % 0.0 mm open2300-1.11 W/m2
21:11 28.8 °C 21.6 °C 1013.4 hPa Calm     65 % 0.0 mm open2300-1.11 W/m2
22:11 27.9 °C 20.9 °C 1013.4 hPa Calm     66 % 0.0 mm open2300-1.11 W/m2
23:11 27.4 °C 20.4 °C 1014.1 hPa Calm   2.3 km/h 66 % 0.0 mm open2300-1.11 W/m2
Observations météo à CASSIS
WU-History script by Weather Underground - 1 mb